createdAt,value
2019-02-17T00:00:33.531Z,1.78
2019-02-17T00:01:33.454Z,1.75
2019-02-17T00:02:42.433Z,1.85
2019-02-17T00:03:33.432Z,1.92
2019-02-17T00:04:41.528Z,1.92
2019-02-17T00:05:33.431Z,1.93
2019-02-17T00:06:33.454Z,1.92
2019-02-17T00:07:33.389Z,1.92
2019-02-17T00:08:33.462Z,1.84
2019-02-17T00:09:33.374Z,1.84
2019-02-17T00:10:33.468Z,1.85
2019-02-17T00:11:33.352Z,1.95
2019-02-17T00:12:33.342Z,2.00
2019-02-17T00:13:33.329Z,1.97
2019-02-17T00:14:33.402Z,1.89
2019-02-17T00:15:33.325Z,1.78
2019-02-17T00:16:33.311Z,1.89
2019-02-17T00:17:33.284Z,1.74
2019-02-17T00:18:33.325Z,1.76
2019-02-17T00:19:33.264Z,1.68
2019-02-17T00:20:33.365Z,1.68
2019-02-17T00:21:33.241Z,1.64
2019-02-17T00:22:33.247Z,1.50
2019-02-17T00:23:33.221Z,1.46
2019-02-17T00:24:33.261Z,1.48
2019-02-17T00:25:33.218Z,1.49
2019-02-17T00:26:33.276Z,1.50
2019-02-17T00:27:33.195Z,1.42
2019-02-17T00:28:33.190Z,1.48
2019-02-17T00:29:33.170Z,1.49
2019-02-17T00:30:33.226Z,1.43
2019-02-17T00:31:33.133Z,1.57
2019-02-17T00:32:33.214Z,1.50
2019-02-17T00:33:33.116Z,1.56
2019-02-17T00:34:33.126Z,1.53
2019-02-17T00:35:33.107Z,1.71
2019-02-17T00:36:33.139Z,1.63
2019-02-17T00:37:33.079Z,1.53
2019-02-17T00:38:33.158Z,1.49
2019-02-17T00:39:33.049Z,1.60
2019-02-17T00:40:33.090Z,1.56
2019-02-17T00:41:33.033Z,1.57
2019-02-17T00:42:33.077Z,1.50
2019-02-17T00:43:33.007Z,1.49
2019-02-17T00:44:33.090Z,1.46
2019-02-17T00:45:32.986Z,1.46
2019-02-17T00:46:33.027Z,1.56
2019-02-17T00:47:32.963Z,1.66
2019-02-17T00:48:35.065Z,1.85
2019-02-17T00:49:32.943Z,2.01
2019-02-17T00:50:41.939Z,1.98
2019-02-17T00:51:32.936Z,2.12
2019-02-17T00:52:40.939Z,2.12
2019-02-17T00:53:32.906Z,2.01
2019-02-17T00:54:39.408Z,2.08
2019-02-17T00:55:32.883Z,1.98
2019-02-17T00:56:33.916Z,2.03
2019-02-17T00:57:32.856Z,1.88
2019-02-17T00:58:32.881Z,1.85
2019-02-17T00:59:32.839Z,1.76
2019-02-17T01:00:32.893Z,1.76
2019-02-17T01:01:32.834Z,1.53
2019-02-17T01:02:32.911Z,1.49
2019-02-17T01:03:32.802Z,1.43
2019-02-17T01:04:32.823Z,1.46
2019-02-17T01:05:32.775Z,1.53
2019-02-17T01:06:32.861Z,1.43
2019-02-17T01:07:32.768Z,1.46
2019-02-17T01:08:32.850Z,1.53
2019-02-17T01:09:32.733Z,1.61
2019-02-17T01:10:32.764Z,1.46
2019-02-17T01:11:32.728Z,1.56
2019-02-17T01:12:32.776Z,1.60
2019-02-17T01:13:32.689Z,1.64
2019-02-17T01:14:32.787Z,1.74
2019-02-17T01:15:32.669Z,1.70
2019-02-17T01:16:32.726Z,1.60
2019-02-17T01:17:32.650Z,1.70
2019-02-17T01:18:32.714Z,1.49
2019-02-17T01:19:32.624Z,1.50
2019-02-17T01:20:32.745Z,1.48
2019-02-17T01:21:32.620Z,1.43
2019-02-17T01:22:32.599Z,1.38
2019-02-17T01:23:32.583Z,1.25
2019-02-17T01:24:32.652Z,1.22
2019-02-17T01:25:32.560Z,1.20
2019-02-17T01:26:32.698Z,1.21
2019-02-17T01:27:32.542Z,1.12
2019-02-17T01:28:32.576Z,1.07
2019-02-17T01:29:32.518Z,1.09
2019-02-17T01:30:32.589Z,1.13
2019-02-17T01:31:32.514Z,1.12
2019-02-17T01:32:32.605Z,1.03
2019-02-17T01:33:33.803Z,1.04
2019-02-17T01:34:32.516Z,1.02
2019-02-17T01:35:32.453Z,1.04
2019-02-17T01:36:33.582Z,1.00
2019-02-17T01:37:32.432Z,1.02
2019-02-17T01:38:39.416Z,0.86
2019-02-17T01:39:32.415Z,0.88
2019-02-17T01:40:38.907Z,0.86
2019-02-17T01:41:32.388Z,0.92
2019-02-17T01:42:33.421Z,0.91
2019-02-17T01:43:32.368Z,1.00
2019-02-17T01:44:32.378Z,1.07
2019-02-17T01:45:32.349Z,1.06
2019-02-17T01:46:32.392Z,1.10
2019-02-17T01:47:32.345Z,1.06
2019-02-17T01:48:32.406Z,1.07
2019-02-17T01:49:32.303Z,1.18
2019-02-17T01:50:32.316Z,1.04
2019-02-17T01:51:32.285Z,1.09
2019-02-17T01:52:32.359Z,1.04
2019-02-17T01:53:32.263Z,1.04
2019-02-17T01:54:32.344Z,1.06
2019-02-17T01:55:32.240Z,0.95
2019-02-17T01:56:32.255Z,1.03
2019-02-17T01:57:32.233Z,0.99
2019-02-17T01:58:32.269Z,0.96
2019-02-17T01:59:32.201Z,0.91
2019-02-17T02:00:32.282Z,0.91
2019-02-17T02:01:32.178Z,0.86
2019-02-17T02:02:32.263Z,0.82
2019-02-17T02:03:32.157Z,0.71
2019-02-17T02:04:32.208Z,0.74
2019-02-17T02:05:32.152Z,0.73
2019-02-17T02:06:32.221Z,0.67
2019-02-17T02:07:32.130Z,0.68
2019-02-17T02:08:32.132Z,0.67
2019-02-17T02:09:32.093Z,0.73
2019-02-17T02:10:32.146Z,0.81
2019-02-17T02:11:32.070Z,0.81
2019-02-17T02:12:32.187Z,0.77
2019-02-17T02:13:32.050Z,0.67
2019-02-17T02:14:32.073Z,0.64
2019-02-17T02:15:32.027Z,0.67
2019-02-17T02:16:32.023Z,0.64
2019-02-17T02:17:32.020Z,0.63
2019-02-17T02:18:32.098Z,0.59
2019-02-17T02:19:31.986Z,0.55
2019-02-17T02:20:32.011Z,0.52
2019-02-17T02:21:31.967Z,0.55
2019-02-17T02:22:33.094Z,0.52
2019-02-17T02:23:31.949Z,0.56
2019-02-17T02:24:32.036Z,0.59
2019-02-17T02:25:31.923Z,0.51
2019-02-17T02:26:38.901Z,0.51
2019-02-17T02:27:31.921Z,0.52
2019-02-17T02:28:34.022Z,0.51
2019-02-17T02:29:40.706Z,0.56
2019-02-17T02:30:32.874Z,0.64
2019-02-17T02:31:31.881Z,0.66
2019-02-17T02:32:31.863Z,0.68
2019-02-17T02:33:31.893Z,0.71
2019-02-17T02:34:31.824Z,0.58
2019-02-17T02:35:31.908Z,0.66
2019-02-17T02:36:31.804Z,0.63
2019-02-17T02:37:31.845Z,0.74
2019-02-17T02:38:31.795Z,0.78
2019-02-17T02:39:31.832Z,0.66
2019-02-17T02:40:31.765Z,0.76
2019-02-17T02:41:34.815Z,0.71
2019-02-17T02:42:31.758Z,0.74
2019-02-17T02:43:31.758Z,0.71
2019-02-17T02:44:31.720Z,0.59
2019-02-17T02:45:31.773Z,0.64
2019-02-17T02:46:31.699Z,0.51
2019-02-17T02:47:31.811Z,0.58
2019-02-17T02:48:31.676Z,0.56
2019-02-17T02:49:31.696Z,0.52
2019-02-17T02:50:31.657Z,0.52
2019-02-17T02:51:31.711Z,0.55
2019-02-17T02:52:31.639Z,0.64
2019-02-17T02:53:31.752Z,0.52
2019-02-17T02:54:31.615Z,0.52
2019-02-17T02:55:31.633Z,0.48
2019-02-17T02:56:31.593Z,0.52
2019-02-17T02:57:31.649Z,0.45
2019-02-17T02:58:31.586Z,0.51
2019-02-17T02:59:31.664Z,0.52
2019-02-17T03:00:31.550Z,0.45
2019-02-17T03:01:31.572Z,0.51
2019-02-17T03:02:31.530Z,0.37
2019-02-17T03:03:31.614Z,0.30
2019-02-17T03:04:31.509Z,0.29
2019-02-17T03:05:31.604Z,0.26
2019-02-17T03:06:31.485Z,0.18
2019-02-17T03:07:31.513Z,0.13
2019-02-17T03:08:31.478Z,0.20
2019-02-17T03:09:31.525Z,0.23
2019-02-17T03:10:31.443Z,0.16
2019-02-17T03:11:31.539Z,0.20
2019-02-17T03:12:31.422Z,0.26
2019-02-17T03:13:34.909Z,0.24
2019-02-17T03:14:31.405Z,0.34
2019-02-17T03:15:33.409Z,0.23
2019-02-17T03:16:31.384Z,0.19
2019-02-17T03:17:32.404Z,0.20
2019-02-17T03:18:31.375Z,0.31
2019-02-17T03:19:31.388Z,0.15
2019-02-17T03:20:31.340Z,0.33
2019-02-17T03:21:31.402Z,0.23
2019-02-17T03:22:31.324Z,0.18
2019-02-17T03:23:31.345Z,0.24
2019-02-17T03:24:31.298Z,0.24
2019-02-17T03:25:31.330Z,0.31
2019-02-17T03:26:31.279Z,0.31
2019-02-17T03:27:31.376Z,0.36
2019-02-17T03:28:31.266Z,0.37
2019-02-17T03:29:31.355Z,0.30
2019-02-17T03:30:31.265Z,0.29
2019-02-17T03:31:31.307Z,0.31
2019-02-17T03:32:31.212Z,0.34
2019-02-17T03:33:31.309Z,0.34
2019-02-17T03:34:31.196Z,0.13
2019-02-17T03:35:31.211Z,0.20
2019-02-17T03:36:31.168Z,0.16
2019-02-17T03:37:31.213Z,0.19
2019-02-17T03:38:31.162Z,0.05
2019-02-17T03:39:31.226Z,0.13
2019-02-17T03:40:31.131Z,0.08
2019-02-17T03:41:31.133Z,0.13
2019-02-17T03:42:31.104Z,0.06
2019-02-17T03:43:31.171Z,0.12
2019-02-17T03:44:31.086Z,0.08
2019-02-17T03:45:31.175Z,0.09
2019-02-17T03:46:31.068Z,0.13
2019-02-17T03:47:31.076Z,0.05
2019-02-17T03:48:31.057Z,0.09
2019-02-17T03:49:31.111Z,0.05
2019-02-17T03:50:31.026Z,-0.02
2019-02-17T03:51:31.101Z,0.12
2019-02-17T03:52:31.004Z,0.05
2019-02-17T03:53:31.014Z,0.12
2019-02-17T03:54:30.993Z,0.13
2019-02-17T03:55:31.033Z,0.02
2019-02-17T03:56:30.968Z,0.08
2019-02-17T03:57:31.044Z,-0.02
2019-02-17T03:58:31.019Z,-0.05
2019-02-17T03:59:32.042Z,-0.02
2019-02-17T04:00:30.913Z,-0.02
2019-02-17T04:01:37.894Z,-0.07
2019-02-17T04:02:30.897Z,-0.06
2019-02-17T04:03:31.902Z,-0.18
2019-02-17T04:04:30.888Z,0.00
2019-02-17T04:05:30.866Z,-0.03
2019-02-17T04:06:30.849Z,0.08
2019-02-17T04:07:30.904Z,0.00
2019-02-17T04:08:30.832Z,0.11
2019-02-17T04:09:30.845Z,0.05
2019-02-17T04:10:30.826Z,0.06
2019-02-17T04:11:30.829Z,-0.05
2019-02-17T04:12:30.786Z,0.01
2019-02-17T04:13:30.849Z,-0.03
2019-02-17T04:14:30.778Z,0.06
2019-02-17T04:15:30.861Z,0.01
2019-02-17T04:16:30.745Z,0.13
2019-02-17T04:17:30.772Z,0.12
2019-02-17T04:18:30.801Z,0.15
2019-02-17T04:19:30.739Z,0.01
2019-02-17T04:20:30.703Z,0.00
2019-02-17T04:21:33.240Z,0.01
2019-02-17T04:22:30.683Z,0.16
2019-02-17T04:23:31.647Z,0.00
2019-02-17T04:24:30.678Z,0.11
2019-02-17T04:25:30.722Z,0.01
2019-02-17T04:26:30.642Z,0.08
2019-02-17T04:27:30.733Z,0.01
2019-02-17T04:28:30.621Z,0.16
2019-02-17T04:29:30.666Z,0.08
2019-02-17T04:30:30.594Z,0.02
2019-02-17T04:31:30.657Z,0.09
2019-02-17T04:32:30.579Z,0.09
2019-02-17T04:33:30.703Z,-0.03
2019-02-17T04:34:30.573Z,0.08
2019-02-17T04:35:30.581Z,0.02
2019-02-17T04:36:30.532Z,0.05
2019-02-17T04:37:30.597Z,0.08
2019-02-17T04:38:30.511Z,-0.02
2019-02-17T04:39:30.537Z,-0.03
2019-02-17T04:40:30.490Z,-0.10
2019-02-17T04:41:30.520Z,-0.03
2019-02-17T04:42:30.472Z,-0.12
2019-02-17T04:43:30.539Z,-0.21
2019-02-17T04:44:30.464Z,-0.31
2019-02-17T04:45:30.549Z,-0.18
2019-02-17T04:46:30.428Z,-0.31
2019-02-17T04:47:30.465Z,-0.27
2019-02-17T04:48:30.407Z,-0.27
2019-02-17T04:49:30.506Z,-0.27
2019-02-17T04:50:30.389Z,-0.13
2019-02-17T04:51:30.501Z,-0.20
2019-02-17T04:52:30.362Z,-0.13
2019-02-17T04:53:30.399Z,-0.12
2019-02-17T04:54:30.359Z,-0.23
2019-02-17T04:55:30.412Z,-0.18
2019-02-17T04:56:30.328Z,-0.15
2019-02-17T04:57:31.356Z,-0.18
2019-02-17T04:58:30.299Z,-0.20
2019-02-17T04:59:30.369Z,-0.10
2019-02-17T05:00:39.473Z,-0.13
2019-02-17T05:01:31.269Z,-0.13
2019-02-17T05:02:30.363Z,-0.17
2019-02-17T05:03:30.246Z,-0.13
2019-02-17T05:04:30.268Z,-0.23
2019-02-17T05:05:30.243Z,-0.15
2019-02-17T05:06:30.286Z,0.00
2019-02-17T05:07:30.205Z,-0.06
2019-02-17T05:08:30.198Z,-0.03
2019-02-17T05:09:30.183Z,-0.03
2019-02-17T05:10:30.234Z,-0.02
2019-02-17T05:11:30.164Z,-0.12
2019-02-17T05:12:30.232Z,-0.15
2019-02-17T05:13:30.143Z,-0.17
2019-02-17T05:14:30.244Z,-0.17
2019-02-17T05:15:30.136Z,-0.23
2019-02-17T05:16:30.148Z,-0.13
2019-02-17T05:17:30.098Z,-0.13
2019-02-17T05:18:30.159Z,-0.05
2019-02-17T05:19:30.077Z,-0.12
2019-02-17T05:20:30.100Z,-0.02
2019-02-17T05:21:30.057Z,0.00
2019-02-17T05:22:30.084Z,-0.10
2019-02-17T05:23:30.034Z,-0.07
2019-02-17T05:24:30.099Z,-0.07
2019-02-17T05:25:30.090Z,-0.20
2019-02-17T05:26:30.111Z,-0.13
2019-02-17T05:27:29.997Z,-0.17
2019-02-17T05:28:30.022Z,-0.23
2019-02-17T05:29:29.973Z,-0.23
2019-02-17T05:30:30.061Z,-0.13
2019-02-17T05:31:29.963Z,-0.21
2019-02-17T05:32:30.054Z,-0.23
2019-02-17T05:33:29.932Z,-0.21
2019-02-17T05:34:36.888Z,-0.30
2019-02-17T05:35:29.930Z,-0.28
2019-02-17T05:36:36.886Z,-0.27
2019-02-17T05:37:29.889Z,-0.30
2019-02-17T05:38:30.912Z,-0.39
2019-02-17T05:39:29.869Z,-0.31
2019-02-17T05:40:29.934Z,-0.41
2019-02-17T05:41:29.843Z,-0.31
2019-02-17T05:42:29.915Z,-0.24
2019-02-17T05:43:29.826Z,-0.23
2019-02-17T05:44:29.825Z,-0.03
2019-02-17T05:45:29.818Z,0.06
2019-02-17T05:46:29.853Z,0.05
2019-02-17T05:47:29.781Z,0.00
2019-02-17T05:48:29.851Z,-0.02
2019-02-17T05:49:29.761Z,0.05
2019-02-17T05:50:29.789Z,0.05
2019-02-17T05:51:29.739Z,0.08
2019-02-17T05:52:29.778Z,0.08
2019-02-17T05:53:29.719Z,0.05
2019-02-17T05:54:29.789Z,0.05
2019-02-17T05:55:29.713Z,0.02
2019-02-17T05:56:29.704Z,0.11
2019-02-17T05:57:29.692Z,0.01
2019-02-17T05:58:29.717Z,0.23
2019-02-17T05:59:29.654Z,0.09
2019-02-17T06:00:29.754Z,-0.03
2019-02-17T06:01:29.633Z,0.06
2019-02-17T06:02:29.632Z,-0.07
2019-02-17T06:03:29.611Z,-0.12
2019-02-17T06:04:29.655Z,-0.03
2019-02-17T06:05:29.621Z,-0.13
2019-02-17T06:06:29.668Z,-0.07
2019-02-17T06:07:29.573Z,-0.13
2019-02-17T06:08:29.579Z,-0.21
2019-02-17T06:09:29.555Z,-0.15
2019-02-17T06:10:29.596Z,-0.17
2019-02-17T06:11:29.547Z,-0.24
2019-02-17T06:12:29.609Z,-0.28
2019-02-17T06:13:29.512Z,-0.28
2019-02-17T06:14:29.519Z,-0.24
2019-02-17T06:15:29.485Z,-0.31
2019-02-17T06:16:29.559Z,-0.23
2019-02-17T06:17:29.466Z,-0.23
2019-02-17T06:18:29.549Z,-0.17
2019-02-17T06:19:29.457Z,-0.26
2019-02-17T06:20:29.457Z,-0.31
2019-02-17T06:21:29.442Z,-0.30
2019-02-17T06:22:29.470Z,-0.41
2019-02-17T06:23:29.405Z,-0.45
2019-02-17T06:24:30.408Z,-0.46
2019-02-17T06:25:29.383Z,-0.53
2019-02-17T06:26:29.423Z,-0.44
2019-02-17T06:27:29.362Z,-0.59
2019-02-17T06:28:29.411Z,-0.62
2019-02-17T06:29:29.338Z,-0.66
2019-02-17T06:30:30.345Z,-0.72
2019-02-17T06:31:29.344Z,-0.72
2019-02-17T06:32:29.334Z,-0.82
2019-02-17T06:33:29.296Z,-0.75
2019-02-17T06:34:29.353Z,-0.74
2019-02-17T06:35:29.275Z,-0.78
2019-02-17T06:36:29.457Z,-0.64
2019-02-17T06:37:29.262Z,-0.69
2019-02-17T06:38:29.279Z,-0.74
2019-02-17T06:39:29.232Z,-0.69
2019-02-17T06:40:29.287Z,-0.69
2019-02-17T06:41:29.225Z,-0.74
2019-02-17T06:42:29.301Z,-0.60
2019-02-17T06:43:29.205Z,-0.60
2019-02-17T06:44:29.217Z,-0.51
2019-02-17T06:45:29.197Z,-0.53
2019-02-17T06:46:29.257Z,-0.49
2019-02-17T06:47:29.150Z,-0.42
2019-02-17T06:48:29.245Z,-0.45
2019-02-17T06:49:29.126Z,-0.38
2019-02-17T06:50:29.157Z,-0.28
2019-02-17T06:51:29.118Z,-0.38
2019-02-17T06:52:29.169Z,-0.27
2019-02-17T06:53:29.088Z,-0.27
2019-02-17T06:54:29.182Z,-0.31
2019-02-17T06:55:29.127Z,-0.21
2019-02-17T06:56:29.121Z,-0.35
2019-02-17T06:57:29.043Z,-0.28
2019-02-17T06:58:29.108Z,-0.33
2019-02-17T06:59:29.023Z,-0.23
2019-02-17T07:00:29.129Z,-0.36
2019-02-17T07:01:28.999Z,-0.24
2019-02-17T07:02:29.063Z,-0.23
2019-02-17T07:03:28.983Z,-0.09
2019-02-17T07:04:29.055Z,-0.09
2019-02-17T07:05:28.975Z,-0.09
2019-02-17T07:06:29.075Z,-0.02
2019-02-17T07:07:29.108Z,0.09
2019-02-17T07:08:29.014Z,0.08
2019-02-17T07:09:28.920Z,-0.03
2019-02-17T07:10:35.877Z,0.01
2019-02-17T07:11:28.924Z,0.08
2019-02-17T07:12:28.928Z,0.12
2019-02-17T07:13:28.875Z,0.15
2019-02-17T07:14:28.913Z,0.18
2019-02-17T07:15:28.853Z,0.34
2019-02-17T07:16:30.874Z,0.27
2019-02-17T07:17:28.844Z,0.42
2019-02-17T07:18:28.945Z,0.44
2019-02-17T07:19:28.809Z,0.51
2019-02-17T07:20:28.851Z,0.56
2019-02-17T07:21:28.788Z,0.59
2019-02-17T07:22:28.894Z,0.64
2019-02-17T07:23:28.767Z,0.67
2019-02-17T07:24:28.774Z,0.74
2019-02-17T07:25:30.409Z,0.74
2019-02-17T07:26:28.789Z,0.76
2019-02-17T07:27:28.740Z,0.78
2019-02-17T07:28:28.802Z,0.74
2019-02-17T07:29:28.706Z,0.85
2019-02-17T07:30:28.716Z,0.88
2019-02-17T07:31:34.893Z,0.85
2019-02-17T07:32:29.778Z,0.92
2019-02-17T07:33:28.661Z,0.89
2019-02-17T07:34:28.745Z,0.88
2019-02-17T07:35:28.642Z,0.86
2019-02-17T07:36:28.651Z,0.95
2019-02-17T07:37:33.443Z,1.06
2019-02-17T07:38:29.691Z,0.96
2019-02-17T07:39:28.598Z,1.10
2019-02-17T07:40:28.681Z,1.22
2019-02-17T07:41:28.574Z,1.30
2019-02-17T07:42:28.618Z,1.40
2019-02-17T07:43:28.634Z,1.46
2019-02-17T07:44:28.604Z,1.63
2019-02-17T07:45:28.531Z,1.86
2019-02-17T07:46:28.618Z,2.03
2019-02-17T07:47:28.687Z,1.97
2019-02-17T07:48:28.529Z,2.12
2019-02-17T07:49:28.491Z,2.28
2019-02-17T07:50:28.543Z,2.43
2019-02-17T07:51:28.467Z,2.57
2019-02-17T07:52:28.554Z,2.73
2019-02-17T07:53:28.459Z,2.94
2019-02-17T07:54:28.476Z,3.09
2019-02-17T07:55:28.426Z,3.29
2019-02-17T07:56:28.479Z,3.64
2019-02-17T07:57:28.403Z,3.91
2019-02-17T07:58:28.520Z,4.03
2019-02-17T07:59:28.385Z,4.06
2019-02-17T08:00:28.404Z,4.27
2019-02-17T08:01:28.373Z,4.43
2019-02-17T08:02:28.418Z,4.74
2019-02-17T08:03:28.353Z,5.00
2019-02-17T08:04:29.356Z,5.20
2019-02-17T08:05:28.321Z,5.54
2019-02-17T08:06:28.347Z,5.91
2019-02-17T08:07:28.294Z,6.12
2019-02-17T08:08:28.386Z,6.05
2019-02-17T08:09:28.274Z,6.10
2019-02-17T08:10:28.370Z,6.31
2019-02-17T08:11:28.257Z,6.68
2019-02-17T08:12:28.289Z,6.95
2019-02-17T08:13:28.254Z,7.28
2019-02-17T08:14:28.294Z,7.55
2019-02-17T08:15:28.208Z,7.85
2019-02-17T08:16:28.311Z,7.99
2019-02-17T08:17:28.186Z,8.16
2019-02-17T08:18:28.260Z,8.16
2019-02-17T08:19:28.168Z,8.13
2019-02-17T08:20:28.236Z,8.23
2019-02-17T08:21:28.142Z,8.41
2019-02-17T08:22:28.144Z,8.75
2019-02-17T08:23:28.135Z,8.68
2019-02-17T08:24:28.157Z,8.49
2019-02-17T08:25:28.101Z,8.16
2019-02-17T08:26:28.174Z,8.20
2019-02-17T08:27:28.074Z,8.27
2019-02-17T08:28:28.110Z,8.38
2019-02-17T08:29:28.054Z,8.53
2019-02-17T08:30:28.098Z,8.32
2019-02-17T08:31:28.031Z,8.36
2019-02-17T08:32:28.110Z,8.45
2019-02-17T08:33:28.028Z,8.54
2019-02-17T08:34:28.023Z,8.56
2019-02-17T08:35:27.989Z,8.81
2019-02-17T08:36:28.036Z,8.82
2019-02-17T08:37:27.964Z,8.96
2019-02-17T08:38:28.083Z,8.96
2019-02-17T08:39:27.943Z,9.48
2019-02-17T08:40:27.960Z,9.51
2019-02-17T08:41:27.919Z,9.76
2019-02-17T08:42:30.022Z,9.82
2019-02-17T08:43:27.914Z,9.82
2019-02-17T08:44:34.880Z,10.10
2019-02-17T08:45:27.899Z,10.06
2019-02-17T08:46:27.898Z,9.87
2019-02-17T08:47:27.855Z,9.92
2019-02-17T08:48:27.939Z,10.02
2019-02-17T08:49:27.833Z,10.06
2019-02-17T08:50:28.853Z,10.25
2019-02-17T08:51:27.813Z,10.45
2019-02-17T08:52:27.840Z,10.46
2019-02-17T08:53:27.789Z,10.30
2019-02-17T08:54:27.877Z,10.02
2019-02-17T08:55:27.767Z,9.90
2019-02-17T08:56:27.936Z,9.95
2019-02-17T08:57:27.757Z,9.94
2019-02-17T08:58:27.779Z,10.07
2019-02-17T08:59:27.735Z,10.20
2019-02-17T09:00:27.790Z,9.97
2019-02-17T09:01:27.703Z,9.67
2019-02-17T09:02:27.702Z,9.77
2019-02-17T09:03:27.676Z,9.97
2019-02-17T09:04:27.741Z,10.12
2019-02-17T09:05:27.654Z,10.94
2019-02-17T09:06:27.729Z,11.08
2019-02-17T09:07:27.632Z,10.90
2019-02-17T09:08:27.647Z,10.64
2019-02-17T09:09:27.630Z,10.72
2019-02-17T09:10:27.658Z,10.64
2019-02-17T09:11:27.586Z,10.75
2019-02-17T09:12:27.672Z,10.92
2019-02-17T09:13:27.565Z,10.83
2019-02-17T09:14:27.608Z,10.71
2019-02-17T09:15:27.542Z,10.15
2019-02-17T09:16:27.596Z,10.39
2019-02-17T09:17:27.520Z,10.57
2019-02-17T09:18:27.609Z,10.90
2019-02-17T09:19:27.513Z,11.35
2019-02-17T09:20:27.521Z,11.33
2019-02-17T09:21:27.477Z,11.83
2019-02-17T09:22:27.537Z,11.89
2019-02-17T09:23:27.456Z,11.65
2019-02-17T09:24:27.573Z,11.51
2019-02-17T09:25:27.433Z,11.31
2019-02-17T09:26:29.602Z,11.08
2019-02-17T09:27:27.411Z,11.27
2019-02-17T09:28:27.480Z,11.07
2019-02-17T09:29:27.460Z,11.56
2019-02-17T09:30:28.405Z,11.62
2019-02-17T09:31:27.374Z,11.33
2019-02-17T09:32:27.395Z,11.30
2019-02-17T09:33:27.359Z,11.43
2019-02-17T09:34:27.439Z,11.73
2019-02-17T09:35:27.326Z,11.49
2019-02-17T09:36:28.343Z,11.85
2019-02-17T09:37:27.318Z,12.35
2019-02-17T09:38:27.334Z,12.40
2019-02-17T09:39:27.294Z,12.44
2019-02-17T09:40:27.357Z,12.58
2019-02-17T09:41:27.259Z,12.25
2019-02-17T09:42:27.361Z,12.05
2019-02-17T09:43:27.266Z,12.21
2019-02-17T09:44:27.300Z,12.54
2019-02-17T09:45:27.218Z,12.48
2019-02-17T09:46:27.285Z,12.84
2019-02-17T09:47:27.198Z,12.54
2019-02-17T09:48:27.198Z,12.23
2019-02-17T09:49:27.298Z,12.36
2019-02-17T09:50:27.210Z,12.29
2019-02-17T09:51:27.150Z,11.86
2019-02-17T09:52:27.225Z,12.36
2019-02-17T09:53:27.352Z,13.02
2019-02-17T09:54:27.163Z,13.54
2019-02-17T09:55:27.106Z,13.42
2019-02-17T09:56:27.150Z,13.64
2019-02-17T09:57:27.082Z,13.60
2019-02-17T09:58:27.163Z,13.60
2019-02-17T09:59:27.091Z,14.04
2019-02-17T10:00:27.077Z,14.26
2019-02-17T10:01:27.039Z,14.18
2019-02-17T10:02:27.088Z,14.30
2019-02-17T10:03:27.018Z,13.71
2019-02-17T10:04:27.102Z,14.16
2019-02-17T10:05:27.021Z,14.33
2019-02-17T10:06:27.013Z,14.74
2019-02-17T10:07:26.972Z,14.18
2019-02-17T10:08:27.027Z,13.70
2019-02-17T10:09:26.952Z,13.54
2019-02-17T10:10:27.068Z,13.89
2019-02-17T10:11:26.937Z,14.05
2019-02-17T10:12:27.065Z,13.65
2019-02-17T10:13:26.910Z,13.19
2019-02-17T10:14:34.895Z,13.21
2019-02-17T10:15:26.908Z,13.26
2019-02-17T10:16:27.902Z,13.73
2019-02-17T10:17:26.873Z,14.12
2019-02-17T10:18:26.894Z,15.02
2019-02-17T10:19:26.848Z,15.66
2019-02-17T10:20:26.967Z,16.58
2019-02-17T10:21:26.828Z,16.94
2019-02-17T10:22:26.919Z,17.01
2019-02-17T10:23:26.804Z,16.41
2019-02-17T10:24:26.830Z,15.83
2019-02-17T10:25:26.825Z,15.94
2019-02-17T10:26:26.844Z,16.02
2019-02-17T10:27:26.757Z,16.24
2019-02-17T10:28:26.856Z,16.08
2019-02-17T10:29:26.739Z,15.59
2019-02-17T10:30:26.806Z,15.55
2019-02-17T10:31:26.712Z,15.91
2019-02-17T10:32:35.969Z,15.72
2019-02-17T10:33:27.692Z,15.23
2019-02-17T10:34:26.693Z,15.57
2019-02-17T10:35:26.687Z,15.25
2019-02-17T10:36:26.707Z,15.23
2019-02-17T10:37:26.647Z,15.10
2019-02-17T10:38:26.721Z,14.82
2019-02-17T10:39:26.630Z,15.41
2019-02-17T10:40:26.658Z,16.09
2019-02-17T10:41:26.607Z,16.91
2019-02-17T10:42:26.645Z,17.72
2019-02-17T10:43:26.610Z,17.65
2019-02-17T10:44:26.659Z,17.87
2019-02-17T10:45:26.579Z,18.27
2019-02-17T10:46:26.571Z,18.28
2019-02-17T10:47:26.551Z,18.26
2019-02-17T10:48:26.586Z,17.91
2019-02-17T10:49:26.526Z,17.68
2019-02-17T10:50:26.633Z,17.30
2019-02-17T10:51:26.635Z,17.49
2019-02-17T10:52:26.513Z,16.34
2019-02-17T10:53:26.489Z,16.41
2019-02-17T10:54:26.524Z,16.34
2019-02-17T10:55:26.457Z,16.25
2019-02-17T10:56:26.588Z,16.12
2019-02-17T10:57:26.438Z,16.06
2019-02-17T10:58:26.551Z,16.12
2019-02-17T10:59:26.409Z,16.29
2019-02-17T11:00:32.914Z,16.86
2019-02-17T11:01:26.405Z,17.72
2019-02-17T11:02:28.422Z,17.73
2019-02-17T11:03:26.372Z,16.69
2019-02-17T11:04:26.386Z,16.86
2019-02-17T11:05:26.346Z,17.22
2019-02-17T11:06:26.426Z,17.22
2019-02-17T11:07:26.325Z,17.50
2019-02-17T11:08:26.416Z,17.60
2019-02-17T11:09:26.304Z,17.69
2019-02-17T11:10:26.325Z,18.26
2019-02-17T11:11:26.295Z,18.05
2019-02-17T11:12:26.341Z,17.50
2019-02-17T11:13:26.320Z,17.13
2019-02-17T11:14:26.353Z,16.74
2019-02-17T11:15:26.248Z,17.28
2019-02-17T11:16:26.311Z,18.18
2019-02-17T11:17:26.216Z,18.16
2019-02-17T11:18:26.280Z,17.59
2019-02-17T11:19:26.197Z,17.41
2019-02-17T11:20:26.306Z,17.57
2019-02-17T11:21:26.201Z,17.76
2019-02-17T11:22:26.205Z,17.32
2019-02-17T11:23:26.159Z,17.57
2019-02-17T11:24:26.241Z,17.07
2019-02-17T11:25:26.150Z,16.84
2019-02-17T11:26:26.166Z,16.51
2019-02-17T11:27:26.115Z,15.72
2019-02-17T11:28:26.146Z,15.99
2019-02-17T11:29:26.097Z,16.06
2019-02-17T11:30:26.163Z,16.41
2019-02-17T11:31:26.086Z,16.62
2019-02-17T11:32:26.171Z,16.82
2019-02-17T11:33:26.051Z,17.07
2019-02-17T11:34:26.089Z,17.73
2019-02-17T11:35:26.025Z,17.42
2019-02-17T11:36:26.122Z,18.05
2019-02-17T11:37:26.017Z,18.00
2019-02-17T11:38:26.116Z,17.88
2019-02-17T11:39:26.003Z,17.14
2019-02-17T11:40:26.029Z,17.09
2019-02-17T11:41:25.977Z,17.02
2019-02-17T11:42:27.059Z,16.84
2019-02-17T11:43:25.940Z,17.41
2019-02-17T11:44:26.968Z,17.07
2019-02-17T11:45:25.930Z,17.23
2019-02-17T11:46:31.932Z,17.23
2019-02-17T11:47:25.900Z,17.20
2019-02-17T11:48:27.943Z,17.50
2019-02-17T11:49:25.876Z,17.13
2019-02-17T11:50:25.883Z,17.07
2019-02-17T11:51:25.868Z,17.04
2019-02-17T11:52:25.897Z,17.37
2019-02-17T11:53:25.846Z,17.19
2019-02-17T11:54:25.915Z,17.22
2019-02-17T11:55:25.822Z,17.30
2019-02-17T11:56:25.869Z,17.41
2019-02-17T11:57:25.793Z,17.27
2019-02-17T11:58:25.835Z,17.52
2019-02-17T11:59:25.781Z,17.30
2019-02-17T12:00:25.864Z,17.39
2019-02-17T12:01:25.765Z,17.30
2019-02-17T12:02:25.761Z,17.49
2019-02-17T12:03:25.724Z,16.77
2019-02-17T12:04:25.778Z,17.39
2019-02-17T12:05:25.705Z,17.19
2019-02-17T12:06:25.820Z,16.76
2019-02-17T12:07:25.700Z,17.47
2019-02-17T12:08:25.699Z,18.24
2019-02-17T12:09:25.693Z,17.73
2019-02-17T12:10:25.713Z,17.76
2019-02-17T12:11:25.655Z,18.05
2019-02-17T12:12:25.727Z,18.27
2019-02-17T12:13:25.619Z,17.95
2019-02-17T12:14:25.701Z,17.31
2019-02-17T12:15:25.597Z,17.17
2019-02-17T12:16:25.689Z,17.69
2019-02-17T12:17:25.586Z,18.39
2019-02-17T12:18:25.666Z,18.16
2019-02-17T12:19:25.566Z,18.09
2019-02-17T12:20:25.577Z,17.79
2019-02-17T12:21:25.567Z,18.21
2019-02-17T12:22:25.590Z,18.21
2019-02-17T12:23:25.584Z,18.34
2019-02-17T12:24:25.605Z,17.75
2019-02-17T12:25:25.495Z,17.69
2019-02-17T12:26:25.516Z,17.41
2019-02-17T12:27:25.494Z,17.39
2019-02-17T12:28:27.577Z,17.57
2019-02-17T12:29:25.459Z,17.82
2019-02-17T12:30:26.640Z,18.08
2019-02-17T12:31:25.431Z,18.53
2019-02-17T12:32:25.482Z,18.18
2019-02-17T12:33:25.431Z,18.30
2019-02-17T12:34:25.492Z,18.33
2019-02-17T12:35:25.402Z,18.27
2019-02-17T12:36:25.489Z,18.64
2019-02-17T12:37:25.395Z,18.82
2019-02-17T12:38:25.394Z,18.34
2019-02-17T12:39:25.351Z,18.05
2019-02-17T12:40:25.425Z,18.21
2019-02-17T12:41:25.329Z,17.94
2019-02-17T12:42:25.451Z,17.69
2019-02-17T12:43:25.510Z,18.09
2019-02-17T12:44:25.333Z,18.51
2019-02-17T12:45:25.291Z,18.96
2019-02-17T12:46:25.348Z,19.44
2019-02-17T12:47:25.284Z,18.86
2019-02-17T12:48:25.362Z,18.98
2019-02-17T12:49:25.252Z,18.66
2019-02-17T12:50:26.827Z,18.48
2019-02-17T12:51:25.282Z,17.93
2019-02-17T12:52:25.632Z,18.52
2019-02-17T12:53:25.451Z,18.41
2019-02-17T12:54:29.056Z,18.64
2019-02-17T12:55:25.246Z,18.37
2019-02-17T12:56:25.211Z,18.34
2019-02-17T12:57:25.197Z,18.53
2019-02-17T12:58:30.027Z,18.49
2019-02-17T12:59:26.139Z,18.46
2019-02-17T13:00:25.587Z,17.95
2019-02-17T13:01:25.145Z,17.73
2019-02-17T13:02:25.453Z,17.42
2019-02-17T13:03:28.563Z,17.95
2019-02-17T13:04:25.208Z,18.27
2019-02-17T13:05:25.097Z,18.27